Time;durP1;ratioP1;P1;durP2;ratioP2;P2;SDS_P1;SDS_P2;PMS_P1;PMS_P2;Temp;Humidity;BMP_temperature;BMP_pressure;BME280_temperature;BME280_humidity;BME280_pressure;Samples;Min_cycle;Max_cycle;Signal;HPM_P1;HPM_P2
2022/08/09 00:02:05;;;;;;;4.35;0.80;;;21.30;62.50;;;;;;5092821;28;20020;-78
2022/08/09 00:04:32;;;;;;;0.88;0.77;;;21.40;62.70;;;;;;5092327;28;20381;-78
2022/08/09 00:06:58;;;;;;;2.03;1.08;;;21.40;62.60;;;;;;5092820;28;20055;-77
2022/08/09 00:09:24;;;;;;;1.60;0.90;;;21.40;62.70;;;;;;5093451;28;20028;-79
2022/08/09 00:11:50;;;;;;;3.17;0.93;;;21.50;63.10;;;;;;5094212;28;20073;-79
2022/08/09 00:14:16;;;;;;;3.20;1.10;;;21.50;63.30;;;;;;5092647;28;20487;-79
2022/08/09 00:16:42;;;;;;;2.25;0.88;;;21.50;63.30;;;;;;5092312;28;20036;-79
2022/08/09 00:19:08;;;;;;;3.90;0.82;;;21.50;63.30;;;;;;5092787;28;20035;-78
2022/08/09 00:21:34;;;;;;;3.42;0.88;;;21.50;63.60;;;;;;5092135;28;20024;-79
2022/08/09 00:24:00;;;;;;;2.30;0.85;;;21.50;63.70;;;;;;5092503;28;20024;-80
2022/08/09 00:26:27;;;;;;;1.52;0.80;;;21.50;64.00;;;;;;5092218;28;20040;-79
2022/08/09 00:28:53;;;;;;;1.30;0.85;;;21.50;64.30;;;;;;5092675;28;20084;-79
2022/08/09 00:31:21;;;;;;;1.23;0.90;;;21.50;64.70;;;;;;5092056;28;20032;-87
2022/08/09 00:33:47;;;;;;;1.58;0.90;;;21.50;65.10;;;;;;5093500;28;20047;-79
2022/08/09 00:36:13;;;;;;;2.05;0.77;;;21.50;65.30;;;;;;5092458;28;20046;-78
2022/08/09 00:38:38;;;;;;;0.93;0.80;;;21.50;65.60;;;;;;5091922;28;20451;-79
2022/08/09 00:41:05;;;;;;;1.42;1.00;;;21.50;65.60;;;;;;5092293;28;20020;-78
2022/08/09 00:43:33;;;;;;;3.10;0.90;;;21.50;65.50;;;;;;5093038;28;20060;-79
2022/08/09 00:45:58;;;;;;;0.95;0.70;;;21.50;65.40;;;;;;5092449;28;20035;-79
2022/08/09 00:48:24;;;;;;;2.03;0.60;;;21.50;65.40;;;;;;5091802;28;20055;-79
2022/08/09 00:50:50;;;;;;;2.40;0.80;;;21.40;65.30;;;;;;5093427;28;20104;-79
2022/08/09 00:53:16;;;;;;;1.63;0.70;;;21.50;65.30;;;;;;5093525;28;20020;-79
2022/08/09 00:55:42;;;;;;;2.17;0.80;;;21.40;65.00;;;;;;5091702;28;20040;-79
2022/08/09 00:58:08;;;;;;;1.48;0.90;;;21.40;65.00;;;;;;5096015;28;20461;-78
2022/08/09 01:00:37;;;;;;;3.42;0.80;;;21.40;65.00;;;;;;5095815;28;20054;-78
2022/08/09 01:03:44;;;;;;;2.47;0.85;;;21.30;65.10;;;;;;5096214;28;20034;-78
2022/08/09 01:06:23;;;;;;;3.03;1.00;;;21.30;65.00;;;;;;5095883;28;20046;-78
2022/08/09 01:09:12;;;;;;;2.70;0.77;;;21.30;64.70;;;;;;5097268;28;20028;-78
2022/08/09 01:11:38;;;;;;;5.45;0.77;;;21.20;64.60;;;;;;5096510;28;20024;-78
2022/08/09 01:14:12;;;;;;;2.97;1.00;;;21.20;64.10;;;;;;5095730;28;20047;-78
2022/08/09 01:16:44;;;;;;;1.40;0.70;;;21.20;63.60;;;;;;5096348;28;20032;-78
2022/08/09 01:19:26;;;;;;;4.22;0.80;;;21.20;63.40;;;;;;5096765;28;20024;-78
2022/08/09 01:22:12;;;;;;;3.75;1.50;;;21.10;63.00;;;;;;5096770;28;20028;-78
2022/08/09 01:24:52;;;;;;;4.03;0.85;;;21.10;63.00;;;;;;5094810;28;20031;-78
2022/08/09 01:27:22;;;;;;;3.40;0.90;;;21.10;62.90;;;;;;5095518;28;20477;-78
2022/08/09 01:29:56;;;;;;;1.77;0.55;;;21.10;62.90;;;;;;5096770;28;20043;-78
2022/08/09 01:32:26;;;;;;;5.93;1.20;;;21.10;63.00;;;;;;5095576;28;20458;-78
2022/08/09 01:34:53;;;;;;;0.98;0.80;;;21.00;63.00;;;;;;5094973;28;20094;-78
2022/08/09 01:37:21;;;;;;;1.55;0.80;;;21.00;63.90;;;;;;5095285;28;20123;-78
2022/08/09 01:39:49;;;;;;;1.73;0.93;;;20.90;63.60;;;;;;5096098;28;20063;-78
2022/08/09 01:42:15;;;;;;;2.47;1.08;;;20.90;63.80;;;;;;5096381;28;20020;-78
2022/08/09 01:44:42;;;;;;;0.98;0.70;;;20.90;63.90;;;;;;5095065;28;20035;-78
2022/08/09 01:47:11;;;;;;;3.85;0.82;;;20.80;64.10;;;;;;5095284;28;20024;-78
2022/08/09 01:49:37;;;;;;;2.33;0.60;;;20.70;64.90;;;;;;5094636;28;20030;-78
2022/08/09 01:52:07;;;;;;;4.40;1.00;;;20.70;64.50;;;;;;5095036;28;20030;-78
2022/08/09 01:54:40;;;;;;;1.77;0.77;;;20.70;64.40;;;;;;5094306;28;20388;-78
2022/08/09 01:57:14;;;;;;;1.25;0.77;;;20.70;64.50;;;;;;5096212;28;20065;-78
2022/08/09 01:59:43;;;;;;;2.17;0.80;;;20.70;64.70;;;;;;5094503;28;20031;-78
2022/08/09 02:02:10;;;;;;;3.42;1.08;;;20.70;64.50;;;;;;5094844;28;20027;-78
2022/08/09 02:04:38;;;;;;;4.88;0.90;;;20.70;64.50;;;;;;5094195;28;20035;-78
2022/08/09 02:07:08;;;;;;;2.05;0.75;;;20.60;64.60;;;;;;5096147;28;20406;-78
2022/08/09 02:09:42;;;;;;;2.35;0.77;;;20.60;64.70;;;;;;5094595;28;20020;-78
2022/08/09 02:12:10;;;;;;;3.67;0.90;;;20.60;65.10;;;;;;5096034;28;20020;-78
2022/08/09 02:14:38;;;;;;;3.42;1.08;;;20.50;65.10;;;;;;5094401;28;20441;-79
2022/08/09 02:17:05;;;;;;;2.92;1.02;;;20.50;65.30;;;;;;5094701;28;20530;-79
2022/08/09 02:19:31;;;;;;;4.40;0.93;;;20.50;65.60;;;;;;5094598;28;20028;-79
2022/08/09 02:22:02;;;;;;;1.17;0.80;;;20.50;65.90;;;;;;5094928;28;20073;-79
2022/08/09 02:24:34;;;;;;;3.28;1.00;;;20.40;66.20;;;;;;5094460;28;20028;-80
2022/08/09 02:27:03;;;;;;;1.77;1.10;;;20.40;66.70;;;;;;5094787;28;20039;-78
2022/08/09 02:29:36;;;;;;;2.60;1.00;;;20.40;67.10;;;;;;5094192;28;20105;-78
2022/08/09 02:32:03;;;;;;;3.25;1.08;;;20.40;67.40;;;;;;5094140;28;20025;-78
2022/08/09 02:34:32;;;;;;;1.00;0.88;;;20.30;68.00;;;;;;5094922;28;20040;-78
2022/08/09 02:37:01;;;;;;;1.13;1.00;;;20.30;67.90;;;;;;5094302;28;20032;-78
2022/08/09 02:39:31;;;;;;;4.90;1.00;;;20.20;68.30;;;;;;5094172;28;20024;-89
2022/08/09 02:42:02;;;;;;;1.95;0.85;;;20.10;68.40;;;;;;5094429;28;20025;-79
2022/08/09 02:44:34;;;;;;;2.58;0.70;;;19.90;68.50;;;;;;5093924;28;20035;-79
2022/08/09 02:47:04;;;;;;;1.23;1.02;;;19.80;69.00;;;;;;5095107;28;20024;-79
2022/08/09 02:49:35;;;;;;;4.15;1.08;;;19.70;69.10;;;;;;5094118;28;20046;-80
2022/08/09 02:52:02;;;;;;;1.95;1.00;;;19.60;69.10;;;;;;5095338;28;20020;-79
2022/08/09 02:54:30;;;;;;;1.80;0.90;;;19.50;68.90;;;;;;5093691;28;20043;-88
2022/08/09 02:56:58;;;;;;;3.25;1.00;;;19.60;67.90;;;;;;5093966;28;20044;-79
2022/08/09 02:59:25;;;;;;;1.52;0.82;;;19.60;67.50;;;;;;5094026;28;20427;-79
2022/08/09 03:01:52;;;;;;;1.85;0.93;;;19.50;67.90;;;;;;5093694;28;20032;-79
2022/08/09 03:04:19;;;;;;;4.20;0.90;;;19.60;67.50;;;;;;5094069;28;20087;-78
2022/08/09 03:06:46;;;;;;;2.58;0.90;;;19.60;67.20;;;;;;5093389;28;20046;-78
2022/08/09 03:09:13;;;;;;;3.22;1.20;;;19.60;66.90;;;;;;5094945;28;20050;-78
2022/08/09 03:11:40;;;;;;;4.53;1.10;;;19.60;67.00;;;;;;5094428;28;20024;-78
2022/08/09 03:14:06;;;;;;;3.22;0.80;;;19.60;67.10;;;;;;5094750;28;20024;-78
2022/08/09 03:16:33;;;;;;;1.45;1.20;;;19.50;67.20;;;;;;5094320;28;20028;-78
2022/08/09 03:19:00;;;;;;;2.40;1.25;;;19.50;66.80;;;;;;5093185;28;20027;-77
2022/08/09 03:21:27;;;;;;;2.53;0.90;;;19.50;66.90;;;;;;5093900;28;20111;-76
2022/08/09 03:23:52;;;;;;;1.20;0.80;;;19.40;67.10;;;;;;5092956;28;20110;-78
2022/08/09 03:26:19;;;;;;;1.40;0.98;;;19.40;67.20;;;;;;5093844;28;20434;-80
2022/08/09 03:28:49;;;;;;;2.53;1.30;;;19.40;66.80;;;;;;5093035;28;20082;-80
2022/08/09 03:31:15;;;;;;;4.00;1.10;;;19.40;66.70;;;;;;5094470;28;20024;-79
2022/08/09 03:33:42;;;;;;;3.38;1.13;;;19.40;67.10;;;;;;5092683;28;20027;-80
2022/08/09 03:36:09;;;;;;;1.60;0.90;;;19.40;67.00;;;;;;5094594;28;20036;-79
2022/08/09 03:38:36;;;;;;;1.33;0.90;;;19.40;66.60;;;;;;5093358;28;20020;-80
2022/08/09 03:41:02;;;;;;;3.55;1.00;;;19.40;66.50;;;;;;5094378;28;20088;-79
2022/08/09 03:43:28;;;;;;;3.72;1.00;;;19.40;66.40;;;;;;5094363;28;20115;-77
2022/08/09 03:45:54;;;;;;;0.90;0.80;;;19.30;66.50;;;;;;5092467;28;20028;-77
2022/08/09 03:48:22;;;;;;;1.67;1.02;;;19.40;66.40;;;;;;5092803;28;20024;-77
2022/08/09 03:50:50;;;;;;;1.92;0.85;;;19.40;66.50;;;;;;5092459;28;20448;-76
2022/08/09 03:53:18;;;;;;;2.35;0.90;;;19.20;66.80;;;;;;5094099;28;20028;-78
2022/08/09 03:55:44;;;;;;;3.08;0.93;;;19.10;67.20;;;;;;5093546;28;20059;-78
2022/08/09 03:58:10;;;;;;;3.58;0.90;;;19.10;67.20;;;;;;5093208;28;20024;-77
2022/08/09 04:00:37;;;;;;;2.42;1.20;;;19.10;67.40;;;;;;5092079;28;20024;-78
2022/08/09 04:03:03;;;;;;;1.67;1.15;;;19.00;67.30;;;;;;5092905;28;20028;-77
2022/08/09 04:05:29;;;;;;;2.63;1.08;;;19.10;67.20;;;;;;5092712;28;20028;-77
2022/08/09 04:07:54;;;;;;;5.32;1.08;;;19.00;67.10;;;;;;5093460;28;20030;-77
2022/08/09 04:10:21;;;;;;;2.35;1.17;;;19.10;67.20;;;;;;5092552;28;20024;-77
2022/08/09 04:12:52;;;;;;;3.35;1.20;;;19.00;67.30;;;;;;5092071;28;20024;-78
2022/08/09 04:15:20;;;;;;;1.73;1.02;;;19.00;67.40;;;;;;5092424;28;20032;-79
2022/08/09 04:17:46;;;;;;;1.10;1.00;;;19.00;67.30;;;;;;5092315;28;20082;-77
2022/08/09 04:20:12;;;;;;;2.47;1.02;;;19.00;67.30;;;;;;5093691;28;20028;-77
2022/08/09 04:22:39;;;;;;;1.58;0.93;;;19.00;67.20;;;;;;5093125;28;20028;-78
2022/08/09 04:25:05;;;;;;;1.75;1.00;;;19.00;67.10;;;;;;5092389;28;20028;-77
2022/08/09 04:27:31;;;;;;;2.78;1.30;;;19.00;67.10;;;;;;5092257;28;20032;-77
2022/08/09 04:29:57;;;;;;;1.98;1.00;;;19.00;67.20;;;;;;5093013;28;20031;-77
2022/08/09 04:32:23;;;;;;;1.58;1.00;;;19.00;67.20;;;;;;5095306;28;20460;-77
2022/08/09 04:34:49;;;;;;;4.25;1.20;;;19.00;67.30;;;;;;5096969;28;20044;-78
2022/08/09 04:37:15;;;;;;;2.25;1.00;;;19.00;67.10;;;;;;5096495;28;20028;-78
2022/08/09 04:39:40;;;;;;;1.75;1.17;;;19.00;67.30;;;;;;5095950;28;20020;-78
2022/08/09 04:42:06;;;;;;;3.08;1.35;;;19.00;67.40;;;;;;5096634;28;20124;-78
2022/08/09 04:44:31;;;;;;;4.32;1.42;;;19.00;67.50;;;;;;5096570;28;20028;-78
2022/08/09 04:46:57;;;;;;;7.70;1.75;;;19.00;67.60;;;;;;5096055;28;20028;-80
2022/08/09 04:49:23;;;;;;;5.18;1.80;;;18.90;67.80;;;;;;5096482;28;20024;-78
2022/08/09 04:51:49;;;;;;;7.75;1.90;;;18.90;67.90;;;;;;5095823;28;20031;-78
2022/08/09 04:54:14;;;;;;;5.47;1.70;;;18.90;67.60;;;;;;5096360;28;20480;-78
2022/08/09 04:56:40;;;;;;;5.13;1.90;;;19.00;67.70;;;;;;5096747;28;20043;-78
2022/08/09 04:59:05;;;;;;;3.13;1.70;;;18.90;67.70;;;;;;5096349;28;20465;-78
2022/08/09 05:01:31;;;;;;;7.40;1.90;;;18.90;67.80;;;;;;5096103;28;20020;-78
2022/08/09 05:03:57;;;;;;;2.47;1.70;;;19.00;67.90;;;;;;5095676;28;20088;-78
2022/08/09 05:06:22;;;;;;;3.17;1.75;;;18.90;68.30;;;;;;5096058;28;20035;-77
2022/08/09 05:08:48;;;;;;;4.72;1.98;;;18.80;68.30;;;;;;5096574;28;20036;-78
2022/08/09 05:11:13;;;;;;;3.67;1.70;;;18.90;68.00;;;;;;5097042;28;20020;-78
2022/08/09 05:13:39;;;;;;;3.95;1.85;;;18.90;68.10;;;;;;5095191;28;20070;-78
2022/08/09 05:16:07;;;;;;;5.13;1.67;;;19.00;68.20;;;;;;5096814;28;20433;-78
2022/08/09 05:18:33;;;;;;;4.90;1.80;;;19.00;68.10;;;;;;5095960;28;20042;-78
2022/08/09 05:20:59;;;;;;;2.78;1.50;;;19.00;68.30;;;;;;5095167;28;20574;-78
2022/08/09 05:23:25;;;;;;;5.07;1.70;;;19.00;68.20;;;;;;5095510;28;20028;-78
2022/08/09 05:25:51;;;;;;;4.20;1.58;;;19.10;68.30;;;;;;5096360;28;20439;-78
2022/08/09 05:28:17;;;;;;;1.55;1.30;;;19.10;68.10;;;;;;5095570;28;20032;-78
2022/08/09 05:30:43;;;;;;;5.05;1.40;;;19.10;68.20;;;;;;5095098;28;20025;-78
2022/08/09 05:33:09;;;;;;;4.57;1.77;;;19.20;68.20;;;;;;5096744;28;20020;-78
2022/08/09 05:35:35;;;;;;;5.57;2.28;;;19.10;68.30;;;;;;5095221;28;20198;-78
2022/08/09 05:38:01;;;;;;;4.45;1.52;;;19.20;68.20;;;;;;5095936;28;20469;-78
2022/08/09 05:40:27;;;;;;;2.85;1.20;;;19.20;68.20;;;;;;5095229;28;20024;-77
2022/08/09 05:42:54;;;;;;;7.03;1.55;;;19.20;68.30;;;;;;5095941;28;20051;-77
2022/08/09 05:45:20;;;;;;;1.75;1.50;;;19.30;68.30;;;;;;5095410;28;20092;-78
2022/08/09 05:47:45;;;;;;;4.45;1.52;;;19.30;68.10;;;;;;5095491;28;20469;-78
2022/08/09 05:50:11;;;;;;;3.88;1.35;;;19.30;68.40;;;;;;5095266;28;20031;-78
2022/08/09 05:52:38;;;;;;;3.63;1.55;;;19.40;68.40;;;;;;5095200;28;20082;-77
2022/08/09 05:55:05;;;;;;;5.13;1.50;;;19.40;68.40;;;;;;5094638;28;20028;-77
2022/08/09 05:57:30;;;;;;;5.57;1.50;;;19.40;68.30;;;;;;5096201;28;20035;-77
2022/08/09 05:59:56;;;;;;;4.07;1.50;;;19.50;68.50;;;;;;5095722;28;20381;-78
2022/08/09 06:02:21;;;;;;;3.00;2.03;;;19.50;68.30;;;;;;5096489;28;20028;-78
2022/08/09 06:04:47;;;;;;;3.38;1.70;;;19.60;69.10;;;;;;5094593;28;20027;-77
2022/08/09 06:07:13;;;;;;;7.28;1.90;;;19.60;68.20;;;;;;5096023;28;20088;-78
2022/08/09 06:09:39;;;;;;;8.50;2.97;;;19.60;68.10;;;;;;5095073;28;20058;-78
2022/08/09 06:12:04;;;;;;;4.32;1.70;;;19.70;68.00;;;;;;5095195;28;20127;-78
2022/08/09 06:14:30;;;;;;;5.35;1.83;;;19.70;68.00;;;;;;5094920;28;20123;-78
2022/08/09 06:16:55;;;;;;;5.00;1.80;;;19.80;67.70;;;;;;5095569;28;20431;-79
2022/08/09 06:19:21;;;;;;;5.20;2.15;;;19.90;67.60;;;;;;5095128;28;20024;-78
2022/08/09 06:21:47;;;;;;;11.48;2.55;;;19.90;67.30;;;;;;5094292;28;20025;-79
2022/08/09 06:24:13;;;;;;;5.40;2.03;;;19.90;67.20;;;;;;5094414;28;20039;-78
2022/08/09 06:26:40;;;;;;;3.72;1.88;;;20.00;67.10;;;;;;5094510;28;20028;-78
2022/08/09 06:29:08;;;;;;;3.38;1.67;;;20.00;67.10;;;;;;5094321;28;20502;-78
2022/08/09 06:31:34;;;;;;;4.22;1.65;;;20.10;66.60;;;;;;5094825;28;20453;-78
2022/08/09 06:34:00;;;;;;;4.35;1.67;;;20.20;66.30;;;;;;5092837;28;20327;-79
2022/08/09 06:36:26;;;;;;;3.95;1.40;;;20.20;65.90;;;;;;5093564;28;20055;-78
2022/08/09 06:38:52;;;;;;;3.85;1.98;;;20.30;65.50;;;;;;5092787;28;20051;-78
2022/08/09 06:41:17;;;;;;;2.95;1.10;;;20.30;65.50;;;;;;5093257;28;20433;-78
2022/08/09 06:43:43;;;;;;;2.10;1.20;;;20.40;65.10;;;;;;5092812;28;20051;-78
2022/08/09 06:46:09;;;;;;;1.83;1.35;;;20.50;64.80;;;;;;5093367;28;20032;-79
2022/08/09 06:48:34;;;;;;;1.80;1.25;;;20.50;64.60;;;;;;5094518;28;20058;-78
2022/08/09 06:51:00;;;;;;;4.03;1.40;;;20.50;64.10;;;;;;5092855;28;20376;-78
2022/08/09 06:53:26;;;;;;;4.35;1.50;;;20.70;63.40;;;;;;5092738;28;20028;-79
2022/08/09 06:55:52;;;;;;;2.80;1.55;;;20.70;63.20;;;;;;5092051;28;20032;-77
2022/08/09 06:58:18;;;;;;;4.25;1.30;;;20.80;62.80;;;;;;5093081;28;20026;-78
2022/08/09 07:00:44;;;;;;;4.97;1.20;;;20.80;62.50;;;;;;5092320;28;20028;-80
2022/08/09 07:03:10;;;;;;;1.38;1.17;;;20.90;62.40;;;;;;5094653;28;20028;-77
2022/08/09 07:05:35;;;;;;;2.72;1.20;;;21.00;62.20;;;;;;5094457;28;20031;-77
2022/08/09 07:08:01;;;;;;;3.20;1.65;;;21.00;62.00;;;;;;5092617;28;20032;-78
2022/08/09 07:10:26;;;;;;;2.92;1.45;;;21.10;61.90;;;;;;5093030;28;20024;-77
2022/08/09 07:12:52;;;;;;;2.03;1.02;;;21.10;61.90;;;;;;5087016;28;20050;-79
2022/08/09 07:15:19;;;;;;;4.15;1.30;;;21.20;61.50;;;;;;5087946;28;20082;-80
2022/08/09 07:17:45;;;;;;;4.53;1.40;;;21.20;61.20;;;;;;5090014;28;20031;-85
2022/08/09 07:20:10;;;;;;;3.22;1.20;;;21.30;61.00;;;;;;5078150;28;20243;-85
2022/08/09 07:22:36;;;;;;;4.63;1.25;;;21.30;60.80;;;;;;5083033;28;20078;-84
2022/08/09 07:25:03;;;;;;;3.45;1.20;;;21.40;60.90;;;;;;5084729;28;20647;-81
2022/08/09 07:27:29;;;;;;;5.43;1.20;;;21.40;60.70;;;;;;5075349;28;20052;-81
2022/08/09 07:29:55;;;;;;;3.75;1.38;;;21.40;60.60;;;;;;5091696;28;20065;-80
2022/08/09 07:32:20;;;;;;;2.65;1.20;;;21.50;60.40;;;;;;5091877;28;20046;-80
2022/08/09 07:34:46;;;;;;;4.47;1.10;;;21.60;60.20;;;;;;5090079;28;20610;-79
2022/08/09 07:37:12;;;;;;;5.43;1.27;;;21.70;59.80;;;;;;5092303;28;20042;-82
2022/08/09 07:39:38;;;;;;;2.83;1.20;;;21.70;59.70;;;;;;5093213;28;20103;-81
2022/08/09 07:42:04;;;;;;;1.58;1.02;;;21.70;59.40;;;;;;5092098;28;20023;-79
2022/08/09 07:44:29;;;;;;;5.75;1.20;;;21.80;59.60;;;;;;5092260;28;20531;-78
2022/08/09 07:46:55;;;;;;;1.17;0.75;;;21.80;60.10;;;;;;5092808;28;20039;-79
2022/08/09 07:49:21;;;;;;;4.70;1.30;;;21.90;59.40;;;;;;5092541;28;20035;-78
2022/08/09 07:51:46;;;;;;;1.20;1.10;;;21.90;59.10;;;;;;5074480;28;20078;-80
2022/08/09 07:54:12;;;;;;;5.10;1.10;;;22.00;59.00;;;;;;5091609;28;20465;-78
2022/08/09 07:56:38;;;;;;;1.40;1.20;;;22.00;58.70;;;;;;5092776;28;20043;-80
2022/08/09 07:59:04;;;;;;;3.10;1.13;;;22.10;58.60;;;;;;5091604;28;20031;-78
2022/08/09 08:01:29;;;;;;;3.45;1.23;;;22.10;58.60;;;;;;5086657;28;20039;-81
2022/08/09 08:03:55;;;;;;;4.32;1.20;;;22.10;58.50;;;;;;5091965;28;20046;-80
2022/08/09 08:06:20;;;;;;;3.53;1.00;;;22.20;58.50;;;;;;5091025;28;20063;-85
2022/08/09 08:08:46;;;;;;;2.42;1.25;;;22.30;58.60;;;;;;5092458;28;20046;-83
2022/08/09 08:11:12;;;;;;;1.77;1.05;;;22.30;58.60;;;;;;5077888;28;20020;-79
2022/08/09 08:13:38;;;;;;;2.05;1.20;;;22.30;58.70;;;;;;5089970;28;20028;-81
2022/08/09 08:16:05;;;;;;;1.88;0.95;;;22.30;58.70;;;;;;5086392;28;20034;-84
2022/08/09 08:18:31;;;;;;;4.18;1.25;;;22.40;58.60;;;;;;5093326;28;20024;-83
2022/08/09 08:20:57;;;;;;;2.25;0.90;;;22.50;58.60;;;;;;5091852;28;20032;-83
2022/08/09 08:23:23;;;;;;;2.58;1.10;;;22.50;58.40;;;;;;5092667;28;20031;-82
2022/08/09 08:25:50;;;;;;;3.75;1.13;;;22.60;58.50;;;;;;5075364;28;20125;-82
2022/08/09 08:28:16;;;;;;;2.13;1.38;;;22.60;58.20;;;;;;5092316;28;20056;-82
2022/08/09 08:30:43;;;;;;;3.35;1.50;;;22.70;58.20;;;;;;5082392;28;20454;-79
2022/08/09 08:33:09;;;;;;;5.32;1.20;;;22.70;58.50;;;;;;5085297;28;20028;-78
2022/08/09 08:35:35;;;;;;;5.20;1.15;;;22.70;58.30;;;;;;5085412;28;20094;-80
2022/08/09 08:38:00;;;;;;;3.40;1.10;;;22.80;58.40;;;;;;5077258;28;20024;-89
2022/08/09 08:40:26;;;;;;;1.65;1.10;;;22.90;58.10;;;;;;5092742;28;20450;-84
2022/08/09 08:42:53;;;;;;;2.00;1.10;;;22.90;58.00;;;;;;5077049;28;20044;-83
2022/08/09 08:45:28;;;;;;;2.90;1.20;;;23.00;58.00;;;;;;5080091;28;20067;-90
2022/08/09 08:47:54;;;;;;;2.33;1.30;;;23.00;58.20;;;;;;5067693;28;20043;-89
2022/08/09 08:50:20;;;;;;;3.22;1.30;;;23.00;58.10;;;;;;5059125;28;20025;-86
2022/08/09 08:52:47;;;;;;;3.72;1.20;;;23.10;58.20;;;;;;5051125;28;20029;-85
2022/08/09 08:55:14;;;;;;;2.88;1.20;;;23.20;57.90;;;;;;5054423;28;20604;-82
2022/08/09 08:57:40;;;;;;;2.65;1.50;;;23.20;57.70;;;;;;5061344;28;20044;-81
2022/08/09 09:00:08;;;;;;;4.43;1.60;;;23.30;57.60;;;;;;5057471;28;20172;-82
2022/08/09 09:02:36;;;;;;;41.60;23.88;;;23.40;58.00;;;;;;5051958;28;20486;-81
2022/08/09 09:05:02;;;;;;;5.13;3.63;;;23.50;57.60;;;;;;5050820;28;20039;-81
2022/08/09 09:07:31;;;;;;;3.72;1.65;;;23.60;57.40;;;;;;5067382;28;20024;-83
2022/08/09 09:09:57;;;;;;;2.17;1.40;;;23.70;56.90;;;;;;5053426;28;20020;-81
2022/08/09 09:12:25;;;;;;;4.45;1.40;;;23.60;57.00;;;;;;5053737;28;20104;-79
2022/08/09 09:14:52;;;;;;;2.38;1.38;;;23.80;57.00;;;;;;5088246;28;20059;-84
2022/08/09 09:17:19;;;;;;;3.38;1.35;;;23.80;57.00;;;;;;5077044;28;20086;-80
2022/08/09 09:19:45;;;;;;;4.60;1.20;;;23.90;56.90;;;;;;5091535;28;20024;-89
2022/08/09 09:22:16;;;;;;;5.55;1.38;;;24.00;56.90;;;;;;5093900;28;20117;-79
2022/08/09 09:24:55;;;;;;;1.30;1.20;;;24.00;56.60;;;;;;5094837;28;20058;-82
2022/08/09 09:27:26;;;;;;;1.52;1.05;;;24.00;56.60;;;;;;5080551;28;20127;-81
2022/08/09 09:29:53;;;;;;;2.05;1.20;;;24.10;56.50;;;;;;5094199;28;20041;-76
2022/08/09 09:32:26;;;;;;;3.92;1.20;;;24.10;56.50;;;;;;5095380;28;20028;-76
2022/08/09 09:35:10;;;;;;;2.38;1.30;;;24.20;56.30;;;;;;5092590;28;20047;-77
2022/08/09 09:37:39;;;;;;;1.90;1.10;;;24.30;56.10;;;;;;5093025;28;20032;-77
2022/08/09 09:40:06;;;;;;;1.63;1.27;;;24.20;56.20;;;;;;5094655;28;20028;-77
2022/08/09 09:42:32;;;;;;;3.63;1.45;;;24.30;56.10;;;;;;5085411;28;20381;-80
2022/08/09 09:45:02;;;;;;;2.47;1.42;;;24.40;56.10;;;;;;5093751;28;20035;-77
2022/08/09 09:47:28;;;;;;;3.28;1.27;;;24.50;55.80;;;;;;5094326;28;20032;-77
2022/08/09 09:49:56;;;;;;;3.95;1.13;;;24.60;55.70;;;;;;5077393;28;20048;-76
2022/08/09 09:52:22;;;;;;;4.13;1.05;;;24.70;55.10;;;;;;5093631;28;20055;-77
2022/08/09 09:54:47;;;;;;;2.75;1.08;;;24.70;54.80;;;;;;5093270;28;20032;-78
2022/08/09 09:57:17;;;;;;;3.10;1.17;;;24.80;54.80;;;;;;5078938;28;20186;-78
2022/08/09 09:59:45;;;;;;;2.75;1.20;;;24.90;54.40;;;;;;5092877;28;20024;-78
2022/08/09 10:02:11;;;;;;;1.95;1.27;;;24.90;53.70;;;;;;5088986;28;20051;-77
2022/08/09 10:04:37;;;;;;;3.17;1.25;;;25.10;53.60;;;;;;5084615;28;20165;-83
2022/08/09 10:07:03;;;;;;;4.25;1.13;;;25.10;53.40;;;;;;5080629;28;20035;-78
2022/08/09 10:09:49;;;;;;;2.20;1.10;;;25.20;53.60;;;;;;5073977;28;20025;-77
2022/08/09 10:12:33;;;;;;;2.70;1.10;;;25.20;53.50;;;;;;5088495;28;20105;-76
2022/08/09 10:15:14;;;;;;;1.65;1.10;;;25.30;53.00;;;;;;5085834;28;20332;-78
2022/08/09 10:17:42;;;;;;;2.20;1.10;;;25.40;52.60;;;;;;5077865;28;20039;-79
2022/08/09 10:20:16;;;;;;;5.95;1.10;;;25.50;52.40;;;;;;5088791;28;20024;-79
2022/08/09 10:22:42;;;;;;;4.07;1.10;;;25.60;52.60;;;;;;5084140;28;20027;-79
2022/08/09 10:25:09;;;;;;;2.60;1.20;;;25.60;52.30;;;;;;5094991;28;20026;-80
2022/08/09 10:27:35;;;;;;;2.95;1.40;;;25.80;51.60;;;;;;5077199;28;20433;-79
2022/08/09 10:30:05;;;;;;;2.00;1.15;;;25.90;51.60;;;;;;5088035;28;20458;-79
2022/08/09 10:32:33;;;;;;;1.55;1.10;;;25.90;51.50;;;;;;5082769;28;20034;-80
2022/08/09 10:34:59;;;;;;;4.18;1.42;;;26.30;51.00;;;;;;5080297;28;20052;-78
2022/08/09 10:37:25;;;;;;;3.28;0.90;;;26.40;50.70;;;;;;5089687;28;20102;-78
2022/08/09 10:39:52;;;;;;;2.97;1.27;;;26.50;50.30;;;;;;5080563;28;20055;-78
2022/08/09 10:42:18;;;;;;;5.40;1.10;;;26.60;49.70;;;;;;5092165;28;20032;-78
2022/08/09 10:44:48;;;;;;;3.22;1.33;;;26.50;50.00;;;;;;5092197;28;20024;-81
2022/08/09 10:47:24;;;;;;;3.33;1.40;;;26.50;50.20;;;;;;5093443;28;20038;-79
2022/08/09 10:50:12;;;;;;;1.95;1.00;;;26.50;49.80;;;;;;5092568;28;20012;-78
2022/08/09 10:53:20;;;;;;;2.17;1.13;;;26.60;49.20;;;;;;5091932;28;20085;-80
2022/08/09 10:55:46;;;;;;;1.58;0.95;;;26.70;48.00;;;;;;5091647;28;20044;-84
2022/08/09 10:58:32;;;;;;;1.92;1.08;;;26.90;48.30;;;;;;5092812;28;20039;-79
2022/08/09 11:00:58;;;;;;;2.60;1.45;;;26.90;48.00;;;;;;5091097;28;20043;-82
2022/08/09 11:03:25;;;;;;;2.00;1.25;;;26.90;48.80;;;;;;5092950;28;20024;-81
2022/08/09 11:06:17;;;;;;;3.40;1.10;;;26.90;48.50;;;;;;5089599;28;20033;-81
2022/08/09 11:08:45;;;;;;;1.85;0.90;;;27.00;46.80;;;;;;5072914;28;20036;-80
2022/08/09 11:11:11;;;;;;;3.58;1.30;;;27.10;47.40;;;;;;5087390;28;20032;-81
2022/08/09 11:13:36;;;;;;;3.72;1.13;;;27.30;47.00;;;;;;5083933;28;20382;-80
2022/08/09 11:16:31;;;;;;;5.80;1.98;;;27.30;46.80;;;;;;5087798;28;20032;-79
2022/08/09 11:18:56;;;;;;;4.22;1.30;;;27.50;46.30;;;;;;5085199;28;20027;-82
2022/08/09 11:21:52;;;;;;;0.85;0.80;;;27.60;46.20;;;;;;5076896;28;20029;-81
2022/08/09 11:24:20;;;;;;;3.47;1.30;;;27.70;46.30;;;;;;5073948;28;20032;-81
2022/08/09 11:26:49;;;;;;;3.67;1.40;;;27.80;45.90;;;;;;5088088;28;20476;-86
2022/08/09 11:29:52;;;;;;;2.05;1.00;;;28.00;46.10;;;;;;5092500;28;20028;-83
2022/08/09 11:32:53;;;;;;;2.63;0.88;;;28.00;46.20;;;;;;5080728;28;20020;-82
2022/08/09 11:35:38;;;;;;;2.40;1.00;;;28.00;45.50;;;;;;5034458;28;20045;-74
2022/08/09 11:38:17;;;;;;;2.58;2.00;;;28.00;45.90;;;;;;5076923;28;20024;-72
2022/08/09 11:40:43;;;;;;;4.70;1.60;;;28.20;46.40;;;;;;5080316;28;20024;-72
2022/08/09 11:43:15;;;;;;;3.05;1.83;;;28.30;46.80;;;;;;5080429;28;20020;-79
2022/08/09 11:46:01;;;;;;;2.95;2.40;;;28.30;46.40;;;;;;5091508;28;20089;-81
2022/08/09 11:48:30;;;;;;;3.20;1.80;;;28.20;46.20;;;;;;5093054;28;20036;-82
2022/08/09 11:50:55;;;;;;;4.68;1.70;;;28.20;46.60;;;;;;5080336;28;20029;-83
2022/08/09 11:53:26;;;;;;;3.30;1.20;;;28.30;46.60;;;;;;5089083;28;20047;-83
2022/08/09 11:55:53;;;;;;;3.10;1.10;;;28.30;46.00;;;;;;5075882;28;20032;-80
2022/08/09 11:58:18;;;;;;;3.55;1.05;;;28.30;45.90;;;;;;5085246;28;20033;-80
2022/08/09 12:00:52;;;;;;;1.17;1.00;;;28.30;45.70;;;;;;5082715;28;20039;-81
2022/08/09 12:03:21;;;;;;;8.45;1.40;;;28.40;46.00;;;;;;5076317;28;20028;-81
2022/08/09 12:05:49;;;;;;;2.58;1.10;;;28.40;46.30;;;;;;5088427;28;20415;-82
2022/08/09 12:08:15;;;;;;;2.13;1.15;;;28.50;45.90;;;;;;5079183;28;20024;-83
2022/08/09 12:10:50;;;;;;;3.25;0.90;;;28.50;45.40;;;;;;5083254;28;20522;-81
2022/08/09 12:13:40;;;;;;;1.85;0.77;;;28.50;45.40;;;;;;5086884;28;20070;-81
2022/08/09 12:16:09;;;;;;;2.17;1.07;;;28.60;44.80;;;;;;5081096;28;20233;-82
2022/08/09 12:18:36;;;;;;;2.15;0.63;;;28.70;45.60;;;;;;5091945;28;20032;-80
2022/08/09 12:21:06;;;;;;;1.00;0.80;;;28.70;44.80;;;;;;5077657;28;20033;-79
2022/08/09 12:23:33;;;;;;;4.80;1.02;;;28.70;44.50;;;;;;5087705;28;20071;-80
2022/08/09 12:25:59;;;;;;;1.27;0.80;;;28.80;44.70;;;;;;5076550;28;20036;-80
2022/08/09 12:28:26;;;;;;;1.40;0.80;;;29.00;44.60;;;;;;5084225;28;20021;-80
2022/08/09 12:30:52;;;;;;;1.27;0.90;;;29.10;44.90;;;;;;5082836;28;20032;-80
2022/08/09 12:33:19;;;;;;;1.10;0.75;;;29.20;44.60;;;;;;5076087;28;20382;-80
2022/08/09 12:35:46;;;;;;;2.15;1.10;;;29.10;44.40;;;;;;5082481;28;20048;-80
2022/08/09 12:38:30;;;;;;;1.15;1.05;;;29.10;44.20;;;;;;5091688;28;20121;-80
2022/08/09 12:40:57;;;;;;;1.77;0.90;;;29.10;43.90;;;;;;5080005;28;20103;-80
2022/08/09 12:43:28;;;;;;;4.05;0.98;;;29.10;44.40;;;;;;5087158;28;20074;-80
2022/08/09 12:45:56;;;;;;;3.25;0.88;;;29.20;44.60;;;;;;5075958;28;20484;-79
2022/08/09 12:48:22;;;;;;;0.98;0.77;;;29.30;44.40;;;;;;5085211;28;20397;-81
2022/08/09 12:50:49;;;;;;;2.15;1.05;;;29.40;44.20;;;;;;5083471;28;20048;-81
2022/08/09 12:53:35;;;;;;;2.08;0.80;;;29.50;43.90;;;;;;5078509;28;20033;-81